sensor_id;sensor_type;location;lat;lon;timestamp;P1;durP1;ratioP1;P2;durP2;ratioP2
11473;SDS011;5793;52.238;13.438;2024-03-08T00:01:23;37.50;;;21.27;;
11473;SDS011;5793;52.238;13.438;2024-03-08T00:03:52;37.30;;;20.70;;
11473;SDS011;5793;52.238;13.438;2024-03-08T00:06:20;36.10;;;20.70;;
11473;SDS011;5793;52.238;13.438;2024-03-08T00:08:48;39.87;;;20.83;;
11473;SDS011;5793;52.238;13.438;2024-03-08T00:11:17;36.33;;;20.77;;
11473;SDS011;5793;52.238;13.438;2024-03-08T00:13:45;203.07;;;39.80;;
11473;SDS011;5793;52.238;13.438;2024-03-08T00:16:13;34.80;;;21.03;;
11473;SDS011;5793;52.238;13.438;2024-03-08T00:18:40;33.03;;;19.97;;
11473;SDS011;5793;52.238;13.438;2024-03-08T00:21:09;36.53;;;20.67;;
11473;SDS011;5793;52.238;13.438;2024-03-08T00:23:38;38.70;;;21.27;;
11473;SDS011;5793;52.238;13.438;2024-03-08T00:26:06;37.53;;;21.60;;
11473;SDS011;5793;52.238;13.438;2024-03-08T00:28:34;34.40;;;20.20;;
11473;SDS011;5793;52.238;13.438;2024-03-08T00:31:01;34.90;;;21.20;;
11473;SDS011;5793;52.238;13.438;2024-03-08T00:33:30;43.23;;;22.77;;
11473;SDS011;5793;52.238;13.438;2024-03-08T00:35:58;39.03;;;22.30;;
11473;SDS011;5793;52.238;13.438;2024-03-08T00:38:27;42.63;;;22.37;;
11473;SDS011;5793;52.238;13.438;2024-03-08T00:40:55;39.73;;;21.03;;
11473;SDS011;5793;52.238;13.438;2024-03-08T00:43:23;36.93;;;20.53;;
11473;SDS011;5793;52.238;13.438;2024-03-08T00:45:50;37.73;;;22.47;;
11473;SDS011;5793;52.238;13.438;2024-03-08T00:48:18;39.15;;;19.90;;
11473;SDS011;5793;52.238;13.438;2024-03-08T00:50:47;37.27;;;20.60;;
11473;SDS011;5793;52.238;13.438;2024-03-08T00:53:14;37.10;;;20.83;;
11473;SDS011;5793;52.238;13.438;2024-03-08T00:55:44;38.43;;;21.60;;
11473;SDS011;5793;52.238;13.438;2024-03-08T00:58:12;41.07;;;23.10;;
11473;SDS011;5793;52.238;13.438;2024-03-08T01:00:40;36.80;;;20.80;;
11473;SDS011;5793;52.238;13.438;2024-03-08T01:03:08;37.80;;;21.17;;
11473;SDS011;5793;52.238;13.438;2024-03-08T01:05:37;38.10;;;21.63;;
11473;SDS011;5793;52.238;13.438;2024-03-08T01:08:05;38.20;;;22.03;;
11473;SDS011;5793;52.238;13.438;2024-03-08T01:10:34;36.00;;;21.43;;
11473;SDS011;5793;52.238;13.438;2024-03-08T01:13:03;37.10;;;21.37;;
11473;SDS011;5793;52.238;13.438;2024-03-08T01:15:31;34.53;;;19.73;;
11473;SDS011;5793;52.238;13.438;2024-03-08T01:17:59;35.03;;;19.00;;
11473;SDS011;5793;52.238;13.438;2024-03-08T01:20:27;36.00;;;20.53;;
11473;SDS011;5793;52.238;13.438;2024-03-08T01:22:54;35.00;;;19.53;;
11473;SDS011;5793;52.238;13.438;2024-03-08T01:25:22;33.40;;;19.30;;
11473;SDS011;5793;52.238;13.438;2024-03-08T01:27:50;31.43;;;19.40;;
11473;SDS011;5793;52.238;13.438;2024-03-08T01:30:21;30.13;;;18.17;;
11473;SDS011;5793;52.238;13.438;2024-03-08T01:32:49;37.50;;;19.43;;
11473;SDS011;5793;52.238;13.438;2024-03-08T01:35:17;32.60;;;18.80;;
11473;SDS011;5793;52.238;13.438;2024-03-08T01:37:45;33.27;;;18.97;;
11473;SDS011;5793;52.238;13.438;2024-03-08T01:40:14;38.53;;;20.13;;
11473;SDS011;5793;52.238;13.438;2024-03-08T01:42:43;34.50;;;19.73;;
11473;SDS011;5793;52.238;13.438;2024-03-08T01:45:11;35.77;;;19.83;;
11473;SDS011;5793;52.238;13.438;2024-03-08T01:47:40;38.00;;;20.93;;
11473;SDS011;5793;52.238;13.438;2024-03-08T01:50:08;35.70;;;19.83;;
11473;SDS011;5793;52.238;13.438;2024-03-08T01:52:37;36.80;;;20.70;;
11473;SDS011;5793;52.238;13.438;2024-03-08T01:55:05;39.30;;;22.10;;
11473;SDS011;5793;52.238;13.438;2024-03-08T01:57:34;36.33;;;21.30;;
11473;SDS011;5793;52.238;13.438;2024-03-08T02:00:04;41.50;;;21.23;;
11473;SDS011;5793;52.238;13.438;2024-03-08T02:02:36;38.90;;;22.03;;
11473;SDS011;5793;52.238;13.438;2024-03-08T02:05:06;48.47;;;23.53;;
11473;SDS011;5793;52.238;13.438;2024-03-08T02:07:34;43.00;;;22.40;;
11473;SDS011;5793;52.238;13.438;2024-03-08T02:10:02;40.73;;;22.03;;
11473;SDS011;5793;52.238;13.438;2024-03-08T02:12:30;41.27;;;21.97;;
11473;SDS011;5793;52.238;13.438;2024-03-08T02:14:58;42.00;;;23.67;;
11473;SDS011;5793;52.238;13.438;2024-03-08T02:17:26;41.83;;;23.33;;
11473;SDS011;5793;52.238;13.438;2024-03-08T02:19:54;43.77;;;22.80;;
11473;SDS011;5793;52.238;13.438;2024-03-08T02:22:27;42.00;;;21.40;;
11473;SDS011;5793;52.238;13.438;2024-03-08T02:24:55;39.10;;;22.40;;
11473;SDS011;5793;52.238;13.438;2024-03-08T02:27:23;45.57;;;23.93;;
11473;SDS011;5793;52.238;13.438;2024-03-08T02:29:52;37.57;;;21.63;;
11473;SDS011;5793;52.238;13.438;2024-03-08T02:32:22;40.80;;;21.77;;
11473;SDS011;5793;52.238;13.438;2024-03-08T02:34:50;42.43;;;22.83;;
11473;SDS011;5793;52.238;13.438;2024-03-08T02:37:18;39.40;;;21.73;;
11473;SDS011;5793;52.238;13.438;2024-03-08T02:39:47;37.33;;;20.33;;
11473;SDS011;5793;52.238;13.438;2024-03-08T02:42:15;37.47;;;20.43;;
11473;SDS011;5793;52.238;13.438;2024-03-08T02:44:44;38.53;;;21.43;;
11473;SDS011;5793;52.238;13.438;2024-03-08T02:47:11;39.63;;;21.33;;
11473;SDS011;5793;52.238;13.438;2024-03-08T02:49:39;38.93;;;21.27;;
11473;SDS011;5793;52.238;13.438;2024-03-08T02:52:07;37.57;;;21.00;;
11473;SDS011;5793;52.238;13.438;2024-03-08T02:54:35;39.90;;;20.77;;
11473;SDS011;5793;52.238;13.438;2024-03-08T02:57:04;40.33;;;22.57;;
11473;SDS011;5793;52.238;13.438;2024-03-08T02:59:33;39.03;;;21.83;;
11473;SDS011;5793;52.238;13.438;2024-03-08T03:02:01;44.73;;;23.33;;
11473;SDS011;5793;52.238;13.438;2024-03-08T03:04:29;41.50;;;23.03;;
11473;SDS011;5793;52.238;13.438;2024-03-08T03:06:57;42.33;;;22.83;;
11473;SDS011;5793;52.238;13.438;2024-03-08T03:09:25;45.33;;;23.70;;
11473;SDS011;5793;52.238;13.438;2024-03-08T03:11:54;44.37;;;24.23;;
11473;SDS011;5793;52.238;13.438;2024-03-08T03:14:23;46.70;;;23.63;;
11473;SDS011;5793;52.238;13.438;2024-03-08T03:16:53;41.47;;;22.47;;
11473;SDS011;5793;52.238;13.438;2024-03-08T03:19:21;48.67;;;24.67;;
11473;SDS011;5793;52.238;13.438;2024-03-08T03:21:49;46.23;;;24.57;;
11473;SDS011;5793;52.238;13.438;2024-03-08T03:24:17;46.70;;;24.67;;
11473;SDS011;5793;52.238;13.438;2024-03-08T03:26:47;48.23;;;25.10;;
11473;SDS011;5793;52.238;13.438;2024-03-08T03:29:16;44.17;;;23.47;;
11473;SDS011;5793;52.238;13.438;2024-03-08T03:34:25;46.20;;;24.17;;
11473;SDS011;5793;52.238;13.438;2024-03-08T03:36:53;47.83;;;24.57;;
11473;SDS011;5793;52.238;13.438;2024-03-08T03:39:22;45.30;;;24.97;;
11473;SDS011;5793;52.238;13.438;2024-03-08T03:41:49;47.10;;;25.30;;
11473;SDS011;5793;52.238;13.438;2024-03-08T03:44:18;44.53;;;23.23;;
11473;SDS011;5793;52.238;13.438;2024-03-08T03:46:46;49.13;;;26.30;;
11473;SDS011;5793;52.238;13.438;2024-03-08T03:49:13;43.97;;;23.97;;
11473;SDS011;5793;52.238;13.438;2024-03-08T03:51:42;49.73;;;24.90;;
11473;SDS011;5793;52.238;13.438;2024-03-08T03:54:11;46.90;;;25.03;;
11473;SDS011;5793;52.238;13.438;2024-03-08T03:56:39;51.67;;;26.10;;
11473;SDS011;5793;52.238;13.438;2024-03-08T03:59:07;53.83;;;28.43;;
11473;SDS011;5793;52.238;13.438;2024-03-08T04:01:35;53.03;;;28.63;;
11473;SDS011;5793;52.238;13.438;2024-03-08T04:04:05;54.87;;;28.23;;
11473;SDS011;5793;52.238;13.438;2024-03-08T04:06:32;53.50;;;27.75;;
11473;SDS011;5793;52.238;13.438;2024-03-08T04:09:01;50.35;;;27.00;;
11473;SDS011;5793;52.238;13.438;2024-03-08T04:11:30;47.33;;;25.10;;
11473;SDS011;5793;52.238;13.438;2024-03-08T04:13:58;47.60;;;25.57;;
11473;SDS011;5793;52.238;13.438;2024-03-08T04:16:26;50.00;;;25.35;;
11473;SDS011;5793;52.238;13.438;2024-03-08T04:18:54;47.30;;;25.00;;
11473;SDS011;5793;52.238;13.438;2024-03-08T04:21:21;47.90;;;25.60;;
11473;SDS011;5793;52.238;13.438;2024-03-08T04:23:49;46.07;;;24.10;;
11473;SDS011;5793;52.238;13.438;2024-03-08T04:26:19;44.47;;;23.73;;
11473;SDS011;5793;52.238;13.438;2024-03-08T04:28:47;45.10;;;23.03;;
11473;SDS011;5793;52.238;13.438;2024-03-08T04:31:14;45.23;;;24.03;;
11473;SDS011;5793;52.238;13.438;2024-03-08T04:33:42;54.77;;;24.83;;
11473;SDS011;5793;52.238;13.438;2024-03-08T04:36:11;50.33;;;25.50;;
11473;SDS011;5793;52.238;13.438;2024-03-08T04:38:39;44.50;;;22.70;;
11473;SDS011;5793;52.238;13.438;2024-03-08T04:41:08;45.73;;;24.67;;
11473;SDS011;5793;52.238;13.438;2024-03-08T04:43:37;43.40;;;24.13;;
11473;SDS011;5793;52.238;13.438;2024-03-08T04:46:05;49.50;;;25.00;;
11473;SDS011;5793;52.238;13.438;2024-03-08T04:48:33;44.73;;;23.83;;
11473;SDS011;5793;52.238;13.438;2024-03-08T04:51:02;47.97;;;24.97;;
11473;SDS011;5793;52.238;13.438;2024-03-08T04:53:31;49.03;;;24.43;;
11473;SDS011;5793;52.238;13.438;2024-03-08T04:56:00;41.87;;;23.03;;
11473;SDS011;5793;52.238;13.438;2024-03-08T04:58:32;40.43;;;23.00;;
11473;SDS011;5793;52.238;13.438;2024-03-08T05:01:02;39.20;;;21.53;;
11473;SDS011;5793;52.238;13.438;2024-03-08T05:03:30;45.33;;;22.60;;
11473;SDS011;5793;52.238;13.438;2024-03-08T05:05:57;43.03;;;22.73;;
11473;SDS011;5793;52.238;13.438;2024-03-08T05:08:25;42.53;;;22.50;;
11473;SDS011;5793;52.238;13.438;2024-03-08T05:10:53;39.30;;;22.23;;
11473;SDS011;5793;52.238;13.438;2024-03-08T05:13:21;55.10;;;24.43;;
11473;SDS011;5793;52.238;13.438;2024-03-08T05:15:49;43.80;;;22.33;;
11473;SDS011;5793;52.238;13.438;2024-03-08T05:18:18;46.07;;;23.33;;
11473;SDS011;5793;52.238;13.438;2024-03-08T05:20:48;48.50;;;22.50;;
11473;SDS011;5793;52.238;13.438;2024-03-08T05:23:16;48.27;;;24.73;;
11473;SDS011;5793;52.238;13.438;2024-03-08T05:25:45;40.83;;;22.30;;
11473;SDS011;5793;52.238;13.438;2024-03-08T05:28:14;41.37;;;22.40;;
11473;SDS011;5793;52.238;13.438;2024-03-08T05:30:41;47.13;;;25.10;;
11473;SDS011;5793;52.238;13.438;2024-03-08T05:33:09;44.57;;;22.63;;
11473;SDS011;5793;52.238;13.438;2024-03-08T05:35:39;57.47;;;23.40;;
11473;SDS011;5793;52.238;13.438;2024-03-08T05:38:06;39.83;;;22.33;;
11473;SDS011;5793;52.238;13.438;2024-03-08T05:40:34;46.87;;;23.50;;
11473;SDS011;5793;52.238;13.438;2024-03-08T05:43:02;45.70;;;23.27;;
11473;SDS011;5793;52.238;13.438;2024-03-08T05:45:30;43.13;;;23.47;;
11473;SDS011;5793;52.238;13.438;2024-03-08T05:47:58;39.43;;;22.47;;
11473;SDS011;5793;52.238;13.438;2024-03-08T05:50:25;45.50;;;25.20;;
11473;SDS011;5793;52.238;13.438;2024-03-08T05:52:54;46.70;;;25.47;;
11473;SDS011;5793;52.238;13.438;2024-03-08T05:55:23;45.73;;;23.93;;
11473;SDS011;5793;52.238;13.438;2024-03-08T05:57:51;48.33;;;25.00;;
11473;SDS011;5793;52.238;13.438;2024-03-08T06:00:20;45.80;;;25.40;;
11473;SDS011;5793;52.238;13.438;2024-03-08T06:02:48;49.33;;;26.33;;
11473;SDS011;5793;52.238;13.438;2024-03-08T06:05:16;49.87;;;25.97;;
11473;SDS011;5793;52.238;13.438;2024-03-08T06:07:44;50.47;;;25.13;;
11473;SDS011;5793;52.238;13.438;2024-03-08T06:10:14;49.67;;;25.03;;
11473;SDS011;5793;52.238;13.438;2024-03-08T06:12:43;51.40;;;26.33;;
11473;SDS011;5793;52.238;13.438;2024-03-08T06:15:11;53.90;;;27.40;;
11473;SDS011;5793;52.238;13.438;2024-03-08T06:17:42;59.77;;;29.90;;
11473;SDS011;5793;52.238;13.438;2024-03-08T06:20:10;56.90;;;29.37;;
11473;SDS011;5793;52.238;13.438;2024-03-08T06:22:40;57.23;;;29.13;;
11473;SDS011;5793;52.238;13.438;2024-03-08T06:25:08;51.77;;;28.07;;
11473;SDS011;5793;52.238;13.438;2024-03-08T06:27:38;59.17;;;31.17;;
11473;SDS011;5793;52.238;13.438;2024-03-08T06:30:07;60.73;;;31.37;;
11473;SDS011;5793;52.238;13.438;2024-03-08T06:32:36;60.17;;;31.73;;
11473;SDS011;5793;52.238;13.438;2024-03-08T06:35:04;68.07;;;34.17;;
11473;SDS011;5793;52.238;13.438;2024-03-08T06:37:33;64.50;;;32.50;;
11473;SDS011;5793;52.238;13.438;2024-03-08T06:40:01;66.10;;;31.13;;
11473;SDS011;5793;52.238;13.438;2024-03-08T06:42:30;66.63;;;30.80;;
11473;SDS011;5793;52.238;13.438;2024-03-08T06:45:02;60.53;;;31.67;;
11473;SDS011;5793;52.238;13.438;2024-03-08T06:47:32;65.67;;;31.80;;
11473;SDS011;5793;52.238;13.438;2024-03-08T06:50:01;65.27;;;29.87;;
11473;SDS011;5793;52.238;13.438;2024-03-08T06:52:30;54.63;;;29.77;;
11473;SDS011;5793;52.238;13.438;2024-03-08T06:54:57;62.93;;;29.73;;
11473;SDS011;5793;52.238;13.438;2024-03-08T06:57:28;58.17;;;30.93;;
11473;SDS011;5793;52.238;13.438;2024-03-08T06:59:55;57.00;;;30.17;;
11473;SDS011;5793;52.238;13.438;2024-03-08T07:02:25;54.93;;;29.70;;
11473;SDS011;5793;52.238;13.438;2024-03-08T07:04:53;55.53;;;29.90;;
11473;SDS011;5793;52.238;13.438;2024-03-08T07:07:22;63.00;;;28.87;;
11473;SDS011;5793;52.238;13.438;2024-03-08T07:09:50;52.13;;;28.57;;
11473;SDS011;5793;52.238;13.438;2024-03-08T07:12:18;52.30;;;29.37;;
11473;SDS011;5793;52.238;13.438;2024-03-08T07:14:47;54.87;;;30.20;;
11473;SDS011;5793;52.238;13.438;2024-03-08T07:17:15;49.17;;;27.70;;
11473;SDS011;5793;52.238;13.438;2024-03-08T07:19:44;45.67;;;27.83;;
11473;SDS011;5793;52.238;13.438;2024-03-08T07:22:13;49.60;;;27.23;;
11473;SDS011;5793;52.238;13.438;2024-03-08T07:24:40;54.50;;;28.70;;
11473;SDS011;5793;52.238;13.438;2024-03-08T07:27:22;54.63;;;28.77;;
11473;SDS011;5793;52.238;13.438;2024-03-08T07:29:50;50.23;;;27.73;;
11473;SDS011;5793;52.238;13.438;2024-03-08T07:32:33;46.50;;;26.77;;
11473;SDS011;5793;52.238;13.438;2024-03-08T07:35:03;47.30;;;25.67;;
11473;SDS011;5793;52.238;13.438;2024-03-08T07:37:31;50.27;;;27.83;;
11473;SDS011;5793;52.238;13.438;2024-03-08T07:40:00;46.63;;;26.63;;
11473;SDS011;5793;52.238;13.438;2024-03-08T07:42:28;45.53;;;25.23;;
11473;SDS011;5793;52.238;13.438;2024-03-08T07:44:56;43.17;;;25.03;;
11473;SDS011;5793;52.238;13.438;2024-03-08T07:47:23;44.13;;;26.23;;
11473;SDS011;5793;52.238;13.438;2024-03-08T07:49:52;47.63;;;26.87;;
11473;SDS011;5793;52.238;13.438;2024-03-08T07:52:21;46.43;;;26.90;;
11473;SDS011;5793;52.238;13.438;2024-03-08T07:54:49;43.60;;;25.50;;
11473;SDS011;5793;52.238;13.438;2024-03-08T07:57:17;41.13;;;26.10;;
11473;SDS011;5793;52.238;13.438;2024-03-08T07:59:45;44.53;;;25.80;;
11473;SDS011;5793;52.238;13.438;2024-03-08T08:02:13;42.10;;;25.50;;
11473;SDS011;5793;52.238;13.438;2024-03-08T08:04:41;41.90;;;25.13;;
11473;SDS011;5793;52.238;13.438;2024-03-08T08:07:09;39.50;;;25.00;;
11473;SDS011;5793;52.238;13.438;2024-03-08T08:09:38;46.00;;;25.13;;
11473;SDS011;5793;52.238;13.438;2024-03-08T08:12:06;43.33;;;24.50;;
11473;SDS011;5793;52.238;13.438;2024-03-08T08:14:38;44.17;;;25.60;;
11473;SDS011;5793;52.238;13.438;2024-03-08T08:17:07;47.97;;;25.87;;
11473;SDS011;5793;52.238;13.438;2024-03-08T08:19:35;42.00;;;25.10;;
11473;SDS011;5793;52.238;13.438;2024-03-08T08:22:04;40.90;;;25.40;;
11473;SDS011;5793;52.238;13.438;2024-03-08T08:24:35;45.30;;;24.90;;
11473;SDS011;5793;52.238;13.438;2024-03-08T08:27:05;38.10;;;25.03;;
11473;SDS011;5793;52.238;13.438;2024-03-08T08:29:34;38.17;;;23.33;;
11473;SDS011;5793;52.238;13.438;2024-03-08T08:32:02;38.57;;;22.17;;
11473;SDS011;5793;52.238;13.438;2024-03-08T08:34:38;35.40;;;22.37;;
11473;SDS011;5793;52.238;13.438;2024-03-08T08:37:07;35.93;;;22.80;;
11473;SDS011;5793;52.238;13.438;2024-03-08T08:39:35;33.60;;;20.60;;
11473;SDS011;5793;52.238;13.438;2024-03-08T08:42:04;32.40;;;21.57;;
11473;SDS011;5793;52.238;13.438;2024-03-08T08:44:35;29.00;;;20.13;;
11473;SDS011;5793;52.238;13.438;2024-03-08T08:47:03;30.47;;;21.87;;
11473;SDS011;5793;52.238;13.438;2024-03-08T08:49:42;34.53;;;21.30;;
11473;SDS011;5793;52.238;13.438;2024-03-08T08:52:10;32.73;;;20.67;;
11473;SDS011;5793;52.238;13.438;2024-03-08T08:54:42;30.57;;;21.20;;
11473;SDS011;5793;52.238;13.438;2024-03-08T08:57:15;29.23;;;20.13;;
11473;SDS011;5793;52.238;13.438;2024-03-08T08:59:42;31.33;;;20.13;;
11473;SDS011;5793;52.238;13.438;2024-03-08T09:02:12;26.90;;;19.30;;
11473;SDS011;5793;52.238;13.438;2024-03-08T09:04:45;30.83;;;19.43;;
11473;SDS011;5793;52.238;13.438;2024-03-08T09:07:14;29.07;;;18.90;;
11473;SDS011;5793;52.238;13.438;2024-03-08T09:09:42;28.88;;;19.73;;
11473;SDS011;5793;52.238;13.438;2024-03-08T09:12:10;27.73;;;19.80;;
11473;SDS011;5793;52.238;13.438;2024-03-08T09:14:39;27.87;;;19.50;;
11473;SDS011;5793;52.238;13.438;2024-03-08T09:17:07;40.90;;;21.10;;
11473;SDS011;5793;52.238;13.438;2024-03-08T09:19:35;28.37;;;18.40;;
11473;SDS011;5793;52.238;13.438;2024-03-08T09:22:05;29.37;;;19.03;;
11473;SDS011;5793;52.238;13.438;2024-03-08T09:24:32;29.23;;;18.47;;
11473;SDS011;5793;52.238;13.438;2024-03-08T09:27:00;27.85;;;19.55;;
11473;SDS011;5793;52.238;13.438;2024-03-08T09:29:29;27.50;;;19.42;;
11473;SDS011;5793;52.238;13.438;2024-03-08T09:31:57;28.00;;;18.95;;
11473;SDS011;5793;52.238;13.438;2024-03-08T09:34:24;28.13;;;17.63;;
11473;SDS011;5793;52.238;13.438;2024-03-08T09:37:02;25.55;;;17.75;;
11473;SDS011;5793;52.238;13.438;2024-03-08T09:39:32;27.27;;;17.88;;
11473;SDS011;5793;52.238;13.438;2024-03-08T09:42:00;25.23;;;18.02;;
11473;SDS011;5793;52.238;13.438;2024-03-08T09:44:28;26.27;;;17.55;;
11473;SDS011;5793;52.238;13.438;2024-03-08T09:46:56;29.67;;;19.20;;
11473;SDS011;5793;52.238;13.438;2024-03-08T09:49:26;23.00;;;17.05;;
11473;SDS011;5793;52.238;13.438;2024-03-08T09:51:55;30.77;;;17.13;;
11473;SDS011;5793;52.238;13.438;2024-03-08T09:54:24;20.73;;;15.07;;
11473;SDS011;5793;52.238;13.438;2024-03-08T09:56:53;21.48;;;15.30;;
11473;SDS011;5793;52.238;13.438;2024-03-08T09:59:20;24.02;;;16.38;;
11473;SDS011;5793;52.238;13.438;2024-03-08T10:02:12;24.88;;;15.68;;
11473;SDS011;5793;52.238;13.438;2024-03-08T10:04:43;24.38;;;15.80;;
11473;SDS011;5793;52.238;13.438;2024-03-08T10:07:13;21.17;;;14.57;;
11473;SDS011;5793;52.238;13.438;2024-03-08T10:09:43;21.77;;;14.73;;
11473;SDS011;5793;52.238;13.438;2024-03-08T10:12:16;24.40;;;14.07;;
11473;SDS011;5793;52.238;13.438;2024-03-08T10:14:45;22.77;;;14.80;;
11473;SDS011;5793;52.238;13.438;2024-03-08T10:17:13;21.33;;;14.93;;
11473;SDS011;5793;52.238;13.438;2024-03-08T10:19:49;22.73;;;14.90;;
11473;SDS011;5793;52.238;13.438;2024-03-08T10:22:17;20.58;;;14.00;;
11473;SDS011;5793;52.238;13.438;2024-03-08T10:24:46;21.17;;;14.77;;
11473;SDS011;5793;52.238;13.438;2024-03-08T10:27:16;19.83;;;14.07;;
11473;SDS011;5793;52.238;13.438;2024-03-08T10:29:46;21.50;;;14.77;;
11473;SDS011;5793;52.238;13.438;2024-03-08T10:32:14;23.10;;;14.90;;
11473;SDS011;5793;52.238;13.438;2024-03-08T10:34:42;21.27;;;12.97;;
11473;SDS011;5793;52.238;13.438;2024-03-08T10:37:12;19.57;;;14.33;;
11473;SDS011;5793;52.238;13.438;2024-03-08T10:39:47;19.10;;;13.80;;
11473;SDS011;5793;52.238;13.438;2024-03-08T10:42:21;23.30;;;15.23;;
11473;SDS011;5793;52.238;13.438;2024-03-08T10:44:58;23.03;;;15.27;;
11473;SDS011;5793;52.238;13.438;2024-03-08T10:47:33;21.70;;;15.63;;
11473;SDS011;5793;52.238;13.438;2024-03-08T10:50:09;23.93;;;15.93;;
11473;SDS011;5793;52.238;13.438;2024-03-08T10:52:42;20.83;;;14.07;;
11473;SDS011;5793;52.238;13.438;2024-03-08T10:55:12;21.67;;;15.43;;
11473;SDS011;5793;52.238;13.438;2024-03-08T10:57:41;22.13;;;14.43;;
11473;SDS011;5793;52.238;13.438;2024-03-08T11:00:09;26.57;;;15.77;;
11473;SDS011;5793;52.238;13.438;2024-03-08T11:02:43;22.53;;;15.50;;
11473;SDS011;5793;52.238;13.438;2024-03-08T11:05:11;29.27;;;16.40;;
11473;SDS011;5793;52.238;13.438;2024-03-08T11:07:58;22.93;;;16.50;;
11473;SDS011;5793;52.238;13.438;2024-03-08T11:10:27;22.67;;;15.73;;
11473;SDS011;5793;52.238;13.438;2024-03-08T11:12:55;24.83;;;15.53;;
11473;SDS011;5793;52.238;13.438;2024-03-08T11:15:24;22.60;;;15.70;;
11473;SDS011;5793;52.238;13.438;2024-03-08T11:17:52;26.40;;;17.37;;
11473;SDS011;5793;52.238;13.438;2024-03-08T11:20:23;24.33;;;16.03;;
11473;SDS011;5793;52.238;13.438;2024-03-08T11:22:52;23.83;;;15.93;;
11473;SDS011;5793;52.238;13.438;2024-03-08T11:25:32;23.63;;;15.23;;
11473;SDS011;5793;52.238;13.438;2024-03-08T11:28:07;20.83;;;14.67;;
11473;SDS011;5793;52.238;13.438;2024-03-08T11:30:43;23.33;;;15.13;;
11473;SDS011;5793;52.238;13.438;2024-03-08T11:33:13;23.67;;;15.70;;
11473;SDS011;5793;52.238;13.438;2024-03-08T11:35:42;24.93;;;15.40;;
11473;SDS011;5793;52.238;13.438;2024-03-08T11:38:12;22.20;;;15.80;;
11473;SDS011;5793;52.238;13.438;2024-03-08T11:40:45;20.93;;;15.33;;
11473;SDS011;5793;52.238;13.438;2024-03-08T11:43:16;33.63;;;16.57;;
11473;SDS011;5793;52.238;13.438;2024-03-08T11:45:44;22.30;;;14.87;;
11473;SDS011;5793;52.238;13.438;2024-03-08T11:48:12;24.63;;;15.00;;
11473;SDS011;5793;52.238;13.438;2024-03-08T11:50:40;24.10;;;15.10;;
11473;SDS011;5793;52.238;13.438;2024-03-08T11:53:09;22.40;;;14.83;;
11473;SDS011;5793;52.238;13.438;2024-03-08T11:55:39;19.73;;;14.30;;
11473;SDS011;5793;52.238;13.438;2024-03-08T11:58:10;19.07;;;13.70;;
11473;SDS011;5793;52.238;13.438;2024-03-08T12:00:39;19.37;;;14.17;;
11473;SDS011;5793;52.238;13.438;2024-03-08T12:03:08;22.63;;;13.73;;
11473;SDS011;5793;52.238;13.438;2024-03-08T12:05:36;22.53;;;12.93;;
11473;SDS011;5793;52.238;13.438;2024-03-08T12:08:05;20.40;;;13.33;;
11473;SDS011;5793;52.238;13.438;2024-03-08T12:10:34;19.43;;;12.67;;
11473;SDS011;5793;52.238;13.438;2024-03-08T12:13:02;21.43;;;13.20;;
11473;SDS011;5793;52.238;13.438;2024-03-08T12:15:32;18.83;;;12.50;;
11473;SDS011;5793;52.238;13.438;2024-03-08T12:18:00;17.17;;;11.13;;
11473;SDS011;5793;52.238;13.438;2024-03-08T12:20:31;16.23;;;11.43;;
11473;SDS011;5793;52.238;13.438;2024-03-08T12:22:59;18.90;;;12.33;;
11473;SDS011;5793;52.238;13.438;2024-03-08T12:25:27;17.63;;;11.73;;
11473;SDS011;5793;52.238;13.438;2024-03-08T12:28:06;22.87;;;12.57;;
11473;SDS011;5793;52.238;13.438;2024-03-08T12:30:44;18.20;;;11.27;;
11473;SDS011;5793;52.238;13.438;2024-03-08T12:33:13;15.63;;;10.90;;
11473;SDS011;5793;52.238;13.438;2024-03-08T12:35:49;16.03;;;10.10;;
11473;SDS011;5793;52.238;13.438;2024-03-08T12:38:20;17.47;;;10.43;;
11473;SDS011;5793;52.238;13.438;2024-03-08T12:40:54;17.43;;;11.00;;
11473;SDS011;5793;52.238;13.438;2024-03-08T12:43:23;16.67;;;11.73;;
11473;SDS011;5793;52.238;13.438;2024-03-08T12:45:52;15.43;;;11.20;;
11473;SDS011;5793;52.238;13.438;2024-03-08T12:48:21;19.03;;;11.43;;
11473;SDS011;5793;52.238;13.438;2024-03-08T12:50:49;16.47;;;11.00;;
11473;SDS011;5793;52.238;13.438;2024-03-08T12:53:18;16.30;;;11.53;;
11473;SDS011;5793;52.238;13.438;2024-03-08T12:55:46;20.23;;;12.80;;
11473;SDS011;5793;52.238;13.438;2024-03-08T12:58:14;19.00;;;13.27;;
11473;SDS011;5793;52.238;13.438;2024-03-08T13:00:43;16.30;;;12.87;;
11473;SDS011;5793;52.238;13.438;2024-03-08T13:03:13;16.90;;;11.63;;
11473;SDS011;5793;52.238;13.438;2024-03-08T13:05:42;18.07;;;12.20;;
11473;SDS011;5793;52.238;13.438;2024-03-08T13:08:10;19.60;;;12.57;;
11473;SDS011;5793;52.238;13.438;2024-03-08T13:10:40;20.67;;;13.77;;
11473;SDS011;5793;52.238;13.438;2024-03-08T13:13:10;19.90;;;14.17;;
11473;SDS011;5793;52.238;13.438;2024-03-08T13:15:40;18.87;;;13.60;;
11473;SDS011;5793;52.238;13.438;2024-03-08T13:18:08;19.37;;;12.33;;
11473;SDS011;5793;52.238;13.438;2024-03-08T13:20:38;18.87;;;12.63;;
11473;SDS011;5793;52.238;13.438;2024-03-08T13:23:13;19.90;;;12.97;;
11473;SDS011;5793;52.238;13.438;2024-03-08T13:25:41;17.73;;;12.20;;
11473;SDS011;5793;52.238;13.438;2024-03-08T13:28:09;17.27;;;12.13;;
11473;SDS011;5793;52.238;13.438;2024-03-08T13:30:37;19.10;;;12.37;;
11473;SDS011;5793;52.238;13.438;2024-03-08T13:33:05;19.47;;;12.67;;
11473;SDS011;5793;52.238;13.438;2024-03-08T13:35:33;20.30;;;11.97;;
11473;SDS011;5793;52.238;13.438;2024-03-08T13:38:03;18.60;;;12.27;;
11473;SDS011;5793;52.238;13.438;2024-03-08T13:40:33;13.80;;;10.23;;
11473;SDS011;5793;52.238;13.438;2024-03-08T13:43:01;14.43;;;10.50;;
11473;SDS011;5793;52.238;13.438;2024-03-08T13:45:29;15.83;;;10.73;;
11473;SDS011;5793;52.238;13.438;2024-03-08T13:47:57;17.80;;;11.40;;
11473;SDS011;5793;52.238;13.438;2024-03-08T13:50:25;18.00;;;11.13;;
11473;SDS011;5793;52.238;13.438;2024-03-08T13:52:53;14.70;;;10.60;;
11473;SDS011;5793;52.238;13.438;2024-03-08T13:55:23;13.40;;;9.67;;
11473;SDS011;5793;52.238;13.438;2024-03-08T13:57:53;14.83;;;9.60;;
11473;SDS011;5793;52.238;13.438;2024-03-08T14:00:23;13.93;;;10.03;;
11473;SDS011;5793;52.238;13.438;2024-03-08T14:02:53;15.77;;;10.30;;
11473;SDS011;5793;52.238;13.438;2024-03-08T14:05:21;15.53;;;11.10;;
11473;SDS011;5793;52.238;13.438;2024-03-08T14:07:49;18.13;;;11.43;;
11473;SDS011;5793;52.238;13.438;2024-03-08T14:10:20;15.13;;;11.27;;
11473;SDS011;5793;52.238;13.438;2024-03-08T14:12:51;17.73;;;12.23;;
11473;SDS011;5793;52.238;13.438;2024-03-08T14:15:18;18.83;;;11.67;;
11473;SDS011;5793;52.238;13.438;2024-03-08T14:17:52;17.23;;;11.47;;
11473;SDS011;5793;52.238;13.438;2024-03-08T14:20:20;18.30;;;11.40;;
11473;SDS011;5793;52.238;13.438;2024-03-08T14:22:51;14.53;;;10.97;;
11473;SDS011;5793;52.238;13.438;2024-03-08T14:25:20;17.80;;;11.00;;
11473;SDS011;5793;52.238;13.438;2024-03-08T14:27:51;18.30;;;11.50;;
11473;SDS011;5793;52.238;13.438;2024-03-08T14:30:20;18.10;;;11.10;;
11473;SDS011;5793;52.238;13.438;2024-03-08T14:33:01;17.43;;;10.60;;
11473;SDS011;5793;52.238;13.438;2024-03-08T14:35:29;14.23;;;10.37;;